Doubs, Maryland
Current Conditions -  °F | °C
As of 3:20 AM on Monday 22 Dec 2014 (Local Time) from KFDK Reporting Station
Haze Haze  
Wind Chill: 23°   Ceiling: Unl
Heat Index: 23°   Visibility: 5mi
Dew Point: 19°   Wind: 0mph
Humidity: 86%   Direction: NA
Pressure: 30.34"   Gusts: NA
Location:  39.293°N, 77.4503°W
Report Text: KFDK 220820Z AUTO 00000KT 5SM BR CLR M05/M07 A3034 RMK AO2
Loading
Personal Weather Stations






























Interactive Weather Map New forecast layout! Learn more

10-Day Weather Forecast

Advertisements
Track Severe Weather on mobile